createdAt,value
2019-02-25T00:03:12.868Z,1.88
2019-02-25T00:08:31.540Z,2.03
2019-02-25T00:13:50.354Z,2.03
2019-02-25T00:19:08.894Z,1.76
2019-02-25T00:24:27.978Z,1.84
2019-02-25T00:29:46.627Z,2.06
2019-02-25T00:35:06.175Z,2.17
2019-02-25T00:40:24.780Z,2.05
2019-02-25T00:45:43.399Z,2.40
2019-02-25T00:51:02.035Z,2.10
2019-02-25T00:56:20.573Z,2.01
2019-02-25T01:01:39.189Z,1.69
2019-02-25T01:06:57.810Z,1.60
2019-02-25T01:12:16.426Z,1.56
2019-02-25T01:17:35.026Z,1.81
2019-02-25T01:22:53.519Z,1.60
2019-02-25T01:28:12.238Z,1.40
2019-02-25T01:33:31.169Z,1.28
2019-02-25T01:38:49.772Z,1.20
2019-02-25T01:44:09.418Z,1.38
2019-02-25T01:49:28.037Z,1.58
2019-02-25T01:54:46.600Z,1.56
2019-02-25T02:00:15.922Z,1.37
2019-02-25T02:05:34.582Z,1.36
2019-02-25T02:10:53.493Z,1.27
2019-02-25T02:16:12.095Z,1.07
2019-02-25T02:21:30.666Z,1.20
2019-02-25T02:26:49.290Z,0.97
2019-02-25T02:32:08.562Z,0.93
2019-02-25T02:37:27.314Z,0.75
2019-02-25T02:42:57.579Z,0.75
2019-02-25T02:48:19.505Z,0.60
2019-02-25T02:53:38.142Z,0.61
2019-02-25T02:58:56.683Z,0.68
2019-02-25T03:04:15.246Z,0.88
2019-02-25T03:09:33.876Z,0.65
2019-02-25T03:14:52.548Z,0.59
2019-02-25T03:20:12.795Z,0.79
2019-02-25T03:25:31.447Z,0.72
2019-02-25T03:30:50.062Z,0.83
2019-02-25T03:36:08.661Z,0.84
2019-02-25T03:41:27.207Z,0.80
2019-02-25T03:46:45.892Z,0.65
2019-02-25T03:52:04.721Z,0.84
2019-02-25T03:57:23.569Z,0.64
2019-02-25T04:02:42.197Z,0.70
2019-02-25T04:08:00.819Z,0.61
2019-02-25T04:13:19.507Z,0.51
2019-02-25T04:18:38.064Z,0.39
2019-02-25T04:23:56.631Z,0.21
2019-02-25T04:29:15.190Z,0.37
2019-02-25T04:34:33.758Z,0.08
2019-02-25T04:39:52.306Z,0.05
2019-02-25T04:45:16.082Z,0.12
2019-02-25T04:50:35.734Z,0.23
2019-02-25T04:55:56.184Z,0.09
2019-02-25T05:01:14.835Z,0.04
2019-02-25T05:06:33.455Z,0.11
2019-02-25T05:11:52.083Z,0.02
2019-02-25T05:17:10.710Z,0.06
2019-02-25T05:22:29.243Z,0.20
2019-02-25T05:27:49.508Z,0.02
2019-02-25T05:33:08.053Z,0.00
2019-02-25T05:38:26.602Z,0.00
2019-02-25T05:43:45.147Z,0.10
2019-02-25T05:49:04.016Z,0.18
2019-02-25T05:59:42.744Z,0.10
2019-02-25T06:05:01.491Z,0.28
2019-02-25T06:10:20.110Z,0.46
2019-02-25T06:15:38.900Z,0.24
2019-02-25T06:20:57.660Z,0.12
2019-02-25T06:26:16.306Z,0.56
2019-02-25T06:31:34.927Z,0.56
2019-02-25T06:36:53.469Z,0.42
2019-02-25T06:42:12.025Z,0.57
2019-02-25T06:47:33.247Z,0.61
2019-02-25T06:52:51.783Z,0.72
2019-02-25T06:58:10.393Z,0.98
2019-02-25T07:03:30.483Z,1.16
2019-02-25T07:08:50.591Z,0.98
2019-02-25T07:14:19.802Z,0.97
2019-02-25T07:19:42.696Z,2.15
2019-02-25T07:25:19.081Z,7.16
2019-02-25T07:30:44.918Z,7.16
2019-02-25T07:36:09.781Z,8.45
2019-02-25T07:41:29.897Z,10.48
2019-02-25T07:46:52.785Z,10.87
2019-02-25T07:52:18.788Z,10.90
2019-02-25T07:57:38.970Z,12.22
2019-02-25T08:03:01.963Z,12.89
2019-02-25T08:08:30.911Z,12.73
2019-02-25T08:14:07.322Z,13.65
2019-02-25T08:19:27.505Z,12.04
2019-02-25T08:25:03.918Z,13.45
2019-02-25T08:30:24.179Z,15.45
2019-02-25T08:36:03.703Z,17.23
2019-02-25T08:41:23.760Z,17.56
2019-02-25T08:46:43.968Z,16.11
2019-02-25T08:52:02.825Z,17.17
2019-02-25T08:57:21.498Z,18.18
2019-02-25T09:02:40.143Z,17.04
2019-02-25T09:07:58.790Z,16.77
2019-02-25T09:13:17.683Z,15.20
2019-02-25T09:18:36.316Z,14.24
2019-02-25T09:23:55.211Z,14.42
2019-02-25T09:29:13.771Z,13.61
2019-02-25T09:34:32.383Z,13.89
2019-02-25T09:39:52.018Z,13.76
2019-02-25T09:45:15.664Z,13.35
2019-02-25T09:50:34.281Z,14.10
2019-02-25T09:55:52.929Z,13.73
2019-02-25T10:01:11.573Z,13.84
2019-02-25T10:06:30.065Z,13.88
2019-02-25T10:11:48.822Z,13.51
2019-02-25T10:17:07.356Z,13.69
2019-02-25T10:22:25.984Z,13.93
2019-02-25T10:27:44.829Z,14.34
2019-02-25T10:33:06.282Z,14.60
2019-02-25T10:38:24.925Z,14.82
2019-02-25T10:43:43.640Z,15.13
2019-02-25T10:49:11.064Z,15.35
2019-02-25T10:54:23.292Z,15.64
2019-02-25T10:59:43.026Z,15.54
2019-02-25T11:05:01.503Z,15.77
2019-02-25T11:10:24.771Z,15.83
2019-02-25T11:15:44.589Z,15.94
2019-02-25T11:21:05.931Z,15.57
2019-02-25T11:26:26.179Z,15.74
2019-02-25T11:31:47.722Z,15.77
2019-02-25T11:37:07.628Z,15.87
2019-02-25T11:42:26.259Z,16.01
2019-02-25T11:47:44.875Z,16.28
2019-02-25T11:53:03.496Z,16.03
2019-02-25T11:58:22.114Z,16.40
2019-02-25T12:03:40.722Z,16.60
2019-02-25T12:08:59.279Z,17.13
2019-02-25T12:14:17.824Z,17.13
2019-02-25T12:19:36.377Z,17.47
2019-02-25T12:24:54.845Z,17.20
2019-02-25T12:30:16.038Z,16.98
2019-02-25T12:35:34.650Z,16.97
2019-02-25T12:40:53.272Z,17.25
2019-02-25T12:46:12.131Z,17.64
2019-02-25T12:51:30.682Z,17.79
2019-02-25T12:56:49.322Z,17.63
2019-02-25T13:02:08.212Z,17.58
2019-02-25T13:07:26.747Z,17.14
2019-02-25T13:12:45.404Z,17.29
2019-02-25T13:18:04.002Z,17.59
2019-02-25T13:23:22.481Z,18.16
2019-02-25T13:28:41.095Z,18.33
2019-02-25T13:33:59.646Z,18.57
2019-02-25T13:39:18.694Z,18.40
2019-02-25T13:44:37.590Z,18.75
2019-02-25T13:49:56.293Z,18.88
2019-02-25T13:55:16.597Z,18.68
2019-02-25T14:00:35.203Z,19.18
2019-02-25T14:05:53.848Z,19.24
2019-02-25T14:11:12.381Z,19.51
2019-02-25T14:16:30.997Z,19.45
2019-02-25T14:21:49.725Z,19.73
2019-02-25T14:27:08.356Z,19.35
2019-02-25T14:32:27.865Z,19.50
2019-02-25T14:37:47.240Z,19.84
2019-02-25T14:43:06.196Z,19.63
2019-02-25T14:48:25.358Z,19.48
2019-02-25T14:53:46.956Z,19.17
2019-02-25T14:59:07.640Z,18.57
2019-02-25T15:04:25.481Z,18.25
2019-02-25T15:09:45.743Z,18.14
2019-02-25T15:15:07.280Z,18.06
2019-02-25T15:20:28.902Z,18.14
2019-02-25T15:25:47.617Z,18.19
2019-02-25T15:31:06.990Z,18.24
2019-02-25T15:36:28.599Z,18.20
2019-02-25T15:41:48.601Z,17.91
2019-02-25T15:47:08.540Z,17.91
2019-02-25T15:52:30.841Z,17.55
2019-02-25T15:57:48.797Z,17.42
2019-02-25T16:03:09.091Z,17.16
2019-02-25T16:08:28.807Z,16.96
2019-02-25T16:13:48.197Z,16.93
2019-02-25T16:19:06.796Z,16.73
2019-02-25T16:24:25.557Z,16.59
2019-02-25T16:29:44.204Z,16.42
2019-02-25T16:35:04.640Z,15.86
2019-02-25T16:40:26.362Z,15.37
2019-02-25T16:45:45.299Z,15.35
2019-02-25T16:51:07.144Z,14.90
2019-02-25T16:56:26.707Z,14.53
2019-02-25T17:01:55.806Z,14.40
2019-02-25T17:07:15.633Z,14.03
2019-02-25T17:12:34.223Z,13.56
2019-02-25T17:17:52.859Z,13.14
2019-02-25T17:23:11.591Z,12.97
2019-02-25T17:28:30.513Z,12.75
2019-02-25T17:33:50.955Z,12.63
2019-02-25T17:39:10.862Z,12.28
2019-02-25T17:44:32.021Z,12.04
2019-02-25T17:49:50.605Z,11.72
2019-02-25T17:55:18.054Z,11.38
2019-02-25T18:00:45.132Z,10.90
2019-02-25T18:06:05.425Z,10.86
2019-02-25T18:11:24.610Z,10.42
2019-02-25T18:16:46.103Z,10.26
2019-02-25T18:22:03.846Z,10.06
2019-02-25T18:27:22.391Z,10.07
2019-02-25T18:32:41.013Z,9.70
2019-02-25T18:38:00.823Z,9.60
2019-02-25T18:43:21.998Z,9.13
2019-02-25T18:48:41.177Z,8.81
2019-02-25T18:54:03.616Z,8.75
2019-02-25T18:59:21.695Z,8.50
2019-02-25T19:04:41.389Z,8.40
2019-02-25T19:10:03.242Z,8.03
2019-02-25T19:15:21.900Z,7.78
2019-02-25T19:20:43.355Z,7.65
2019-02-25T19:26:08.159Z,7.63
2019-02-25T19:31:26.675Z,7.33
2019-02-25T19:36:49.988Z,7.12
2019-02-25T19:42:15.192Z,7.12
2019-02-25T19:47:31.591Z,6.96
2019-02-25T19:52:51.453Z,6.83
2019-02-25T19:58:10.097Z,6.51
2019-02-25T20:03:28.986Z,6.39
2019-02-25T20:08:50.900Z,6.26
2019-02-25T20:14:10.959Z,6.18
2019-02-25T20:19:29.693Z,6.29
2019-02-25T20:24:52.812Z,5.91
2019-02-25T20:30:30.709Z,5.67
2019-02-25T20:35:51.671Z,5.71
2019-02-25T20:41:09.800Z,5.46
2019-02-25T20:46:30.811Z,5.36
2019-02-25T20:51:50.519Z,5.20
2019-02-25T20:57:10.470Z,5.17
2019-02-25T21:02:30.373Z,5.12
2019-02-25T21:07:50.438Z,5.11
2019-02-25T21:13:09.338Z,5.02
2019-02-25T21:18:30.936Z,4.85
2019-02-25T21:23:49.673Z,4.68
2019-02-25T21:29:10.060Z,4.62
2019-02-25T21:34:30.707Z,4.45
2019-02-25T21:39:49.212Z,4.55
2019-02-25T21:45:11.613Z,4.55
2019-02-25T21:50:35.433Z,4.42
2019-02-25T21:55:57.757Z,4.33
2019-02-25T22:01:18.027Z,4.24
2019-02-25T22:06:36.572Z,4.24
2019-02-25T22:11:55.094Z,3.99
2019-02-25T22:17:15.125Z,3.85
2019-02-25T22:22:35.344Z,3.81
2019-02-25T22:27:54.413Z,3.71
2019-02-25T22:33:25.128Z,3.79
2019-02-25T22:38:33.528Z,3.79
2019-02-25T22:43:52.081Z,3.68
2019-02-25T22:49:10.704Z,3.69
2019-02-25T22:54:29.322Z,3.45
2019-02-25T22:59:50.175Z,3.13
2019-02-25T23:05:10.602Z,2.98
2019-02-25T23:10:28.499Z,3.08
2019-02-25T23:15:48.949Z,3.19
2019-02-25T23:21:07.489Z,3.48
2019-02-25T23:26:26.143Z,3.16
2019-02-25T23:31:46.468Z,3.11
2019-02-25T23:37:05.171Z,3.14
2019-02-25T23:42:23.785Z,2.90
2019-02-25T23:47:42.414Z,3.02
2019-02-25T23:53:01.087Z,2.92
2019-02-25T23:58:21.765Z,2.61
